Terminal Aerodrome Forecast
Issued by NWS Bismarck, ND

Home | Current Version | Previous Version | Graphics & Text | Print | Product List | Glossary On
Versions: 1 2 3 4 5 6 7 8 9 10 11 12 13 14 15 16 17
000
FTUS43 KBIS 261407 AAC
TAFBIS
TAF AMD
KBIS 261407Z 2614/2712 29007KT P6SM SCT100
     FM262000 32007KT P6SM VCSH SCT060
     FM270100 28008KT P6SM SCT100=

USA.gov is the U.S. government's official web portal to all federal, state and local government web resources and services.